sensor_id;sensor_type;location;lat;lon;timestamp;P1;durP1;ratioP1;P2;durP2;ratioP2
14732;SDS011;7457;50.960;6.830;2022-12-10T00:01:51;35.50;;;22.58;;
14732;SDS011;7457;50.960;6.830;2022-12-10T00:04:18;38.83;;;24.33;;
14732;SDS011;7457;50.960;6.830;2022-12-10T00:06:44;36.78;;;25.08;;
14732;SDS011;7457;50.960;6.830;2022-12-10T00:09:11;37.78;;;23.42;;
14732;SDS011;7457;50.960;6.830;2022-12-10T00:11:39;40.00;;;24.42;;
14732;SDS011;7457;50.960;6.830;2022-12-10T00:14:06;37.33;;;22.70;;
14732;SDS011;7457;50.960;6.830;2022-12-10T00:16:32;36.88;;;24.48;;
14732;SDS011;7457;50.960;6.830;2022-12-10T00:18:59;37.40;;;23.35;;
14732;SDS011;7457;50.960;6.830;2022-12-10T00:21:26;39.42;;;24.40;;
14732;SDS011;7457;50.960;6.830;2022-12-10T00:23:53;34.90;;;23.27;;
14732;SDS011;7457;50.960;6.830;2022-12-10T00:26:26;43.00;;;24.40;;
14732;SDS011;7457;50.960;6.830;2022-12-10T00:28:56;38.33;;;24.45;;
14732;SDS011;7457;50.960;6.830;2022-12-10T00:31:23;40.20;;;24.58;;
14732;SDS011;7457;50.960;6.830;2022-12-10T00:33:57;36.40;;;22.23;;
14732;SDS011;7457;50.960;6.830;2022-12-10T00:36:28;38.85;;;23.40;;
14732;SDS011;7457;50.960;6.830;2022-12-10T00:38:55;38.70;;;23.55;;
14732;SDS011;7457;50.960;6.830;2022-12-10T00:41:21;33.25;;;21.65;;
14732;SDS011;7457;50.960;6.830;2022-12-10T00:43:47;34.70;;;22.38;;
14732;SDS011;7457;50.960;6.830;2022-12-10T00:46:13;36.55;;;23.83;;
14732;SDS011;7457;50.960;6.830;2022-12-10T00:48:41;38.50;;;23.55;;
14732;SDS011;7457;50.960;6.830;2022-12-10T00:51:08;41.50;;;24.23;;
14732;SDS011;7457;50.960;6.830;2022-12-10T00:53:42;42.42;;;23.88;;
14732;SDS011;7457;50.960;6.830;2022-12-10T00:56:09;44.80;;;26.85;;
14732;SDS011;7457;50.960;6.830;2022-12-10T00:58:36;42.75;;;25.48;;
14732;SDS011;7457;50.960;6.830;2022-12-10T01:01:22;38.75;;;23.65;;
14732;SDS011;7457;50.960;6.830;2022-12-10T01:03:57;39.05;;;23.13;;
14732;SDS011;7457;50.960;6.830;2022-12-10T01:06:29;40.13;;;23.42;;
14732;SDS011;7457;50.960;6.830;2022-12-10T01:08:59;39.30;;;23.63;;
14732;SDS011;7457;50.960;6.830;2022-12-10T01:11:28;31.52;;;21.10;;
14732;SDS011;7457;50.960;6.830;2022-12-10T01:13:55;30.65;;;19.38;;
14732;SDS011;7457;50.960;6.830;2022-12-10T01:16:22;30.25;;;20.05;;
14732;SDS011;7457;50.960;6.830;2022-12-10T01:18:48;36.15;;;21.83;;
14732;SDS011;7457;50.960;6.830;2022-12-10T01:21:15;35.25;;;22.17;;
14732;SDS011;7457;50.960;6.830;2022-12-10T01:23:43;37.00;;;23.52;;
14732;SDS011;7457;50.960;6.830;2022-12-10T01:26:11;28.63;;;19.55;;
14732;SDS011;7457;50.960;6.830;2022-12-10T01:28:39;37.95;;;23.75;;
14732;SDS011;7457;50.960;6.830;2022-12-10T01:31:07;36.15;;;23.17;;
14732;SDS011;7457;50.960;6.830;2022-12-10T01:33:37;34.88;;;22.00;;
14732;SDS011;7457;50.960;6.830;2022-12-10T01:36:05;39.85;;;25.35;;
14732;SDS011;7457;50.960;6.830;2022-12-10T01:38:43;40.47;;;24.60;;
14732;SDS011;7457;50.960;6.830;2022-12-10T01:41:43;38.05;;;23.50;;
14732;SDS011;7457;50.960;6.830;2022-12-10T01:46:52;74.45;;;28.45;;
14732;SDS011;7457;50.960;6.830;2022-12-10T01:49:26;110.78;;;32.45;;
14732;SDS011;7457;50.960;6.830;2022-12-10T01:51:59;103.57;;;31.67;;
14732;SDS011;7457;50.960;6.830;2022-12-10T01:54:30;138.38;;;37.63;;
14732;SDS011;7457;50.960;6.830;2022-12-10T01:56:58;139.80;;;36.90;;
14732;SDS011;7457;50.960;6.830;2022-12-10T01:59:28;90.53;;;31.75;;
14732;SDS011;7457;50.960;6.830;2022-12-10T02:01:58;79.15;;;31.88;;
14732;SDS011;7457;50.960;6.830;2022-12-10T02:10:02;47.70;;;25.50;;
14732;SDS011;7457;50.960;6.830;2022-12-10T02:15:05;40.13;;;23.92;;
14732;SDS011;7457;50.960;6.830;2022-12-10T02:17:38;40.20;;;23.88;;
14732;SDS011;7457;50.960;6.830;2022-12-10T02:22:45;42.97;;;24.75;;
14732;SDS011;7457;50.960;6.830;2022-12-10T02:25:21;34.28;;;21.83;;
14732;SDS011;7457;50.960;6.830;2022-12-10T02:28:01;35.58;;;21.90;;
14732;SDS011;7457;50.960;6.830;2022-12-10T02:30:35;35.25;;;21.95;;
14732;SDS011;7457;50.960;6.830;2022-12-10T02:33:02;32.03;;;21.05;;
14732;SDS011;7457;50.960;6.830;2022-12-10T02:35:30;34.70;;;21.88;;
14732;SDS011;7457;50.960;6.830;2022-12-10T02:38:12;34.88;;;21.60;;
14732;SDS011;7457;50.960;6.830;2022-12-10T02:40:42;38.53;;;23.63;;
14732;SDS011;7457;50.960;6.830;2022-12-10T02:43:12;35.92;;;21.95;;
14732;SDS011;7457;50.960;6.830;2022-12-10T02:45:38;33.65;;;22.30;;
14732;SDS011;7457;50.960;6.830;2022-12-10T02:48:06;36.33;;;22.65;;
14732;SDS011;7457;50.960;6.830;2022-12-10T02:50:31;43.75;;;25.08;;
14732;SDS011;7457;50.960;6.830;2022-12-10T02:52:58;39.15;;;23.40;;
14732;SDS011;7457;50.960;6.830;2022-12-10T02:55:23;48.28;;;26.40;;
14732;SDS011;7457;50.960;6.830;2022-12-10T03:00:53;82.18;;;29.63;;
14732;SDS011;7457;50.960;6.830;2022-12-10T03:03:34;73.18;;;27.63;;
14732;SDS011;7457;50.960;6.830;2022-12-10T03:06:12;65.68;;;27.73;;
14732;SDS011;7457;50.960;6.830;2022-12-10T03:11:23;43.30;;;24.73;;
14732;SDS011;7457;50.960;6.830;2022-12-10T03:16:34;39.50;;;24.85;;
14732;SDS011;7457;50.960;6.830;2022-12-10T03:19:04;40.47;;;24.15;;
14732;SDS011;7457;50.960;6.830;2022-12-10T03:21:34;44.45;;;25.50;;
14732;SDS011;7457;50.960;6.830;2022-12-10T03:24:02;42.03;;;24.92;;
14732;SDS011;7457;50.960;6.830;2022-12-10T03:26:28;38.88;;;23.40;;
14732;SDS011;7457;50.960;6.830;2022-12-10T03:29:00;37.70;;;22.63;;
14732;SDS011;7457;50.960;6.830;2022-12-10T03:31:30;39.65;;;24.25;;
14732;SDS011;7457;50.960;6.830;2022-12-10T03:33:58;39.53;;;22.55;;
14732;SDS011;7457;50.960;6.830;2022-12-10T03:36:24;38.78;;;23.10;;
14732;SDS011;7457;50.960;6.830;2022-12-10T03:38:51;38.80;;;23.40;;
14732;SDS011;7457;50.960;6.830;2022-12-10T03:41:17;36.45;;;22.83;;
14732;SDS011;7457;50.960;6.830;2022-12-10T03:43:50;35.80;;;22.00;;
14732;SDS011;7457;50.960;6.830;2022-12-10T03:46:17;38.20;;;23.75;;
14732;SDS011;7457;50.960;6.830;2022-12-10T03:48:43;38.08;;;21.83;;
14732;SDS011;7457;50.960;6.830;2022-12-10T03:51:08;35.53;;;22.15;;
14732;SDS011;7457;50.960;6.830;2022-12-10T03:53:34;38.47;;;22.30;;
14732;SDS011;7457;50.960;6.830;2022-12-10T03:55:59;33.22;;;20.58;;
14732;SDS011;7457;50.960;6.830;2022-12-10T03:58:25;39.10;;;22.25;;
14732;SDS011;7457;50.960;6.830;2022-12-10T04:00:50;35.00;;;21.52;;
14732;SDS011;7457;50.960;6.830;2022-12-10T04:03:16;32.53;;;21.42;;
14732;SDS011;7457;50.960;6.830;2022-12-10T04:05:42;38.22;;;22.17;;
14732;SDS011;7457;50.960;6.830;2022-12-10T04:08:07;34.55;;;21.40;;
14732;SDS011;7457;50.960;6.830;2022-12-10T04:10:36;35.03;;;21.58;;
14732;SDS011;7457;50.960;6.830;2022-12-10T04:13:02;35.42;;;21.75;;
14732;SDS011;7457;50.960;6.830;2022-12-10T04:15:47;34.70;;;20.45;;
14732;SDS011;7457;50.960;6.830;2022-12-10T04:18:31;37.40;;;20.35;;
14732;SDS011;7457;50.960;6.830;2022-12-10T04:20:57;36.60;;;19.83;;
14732;SDS011;7457;50.960;6.830;2022-12-10T04:23:41;36.90;;;22.38;;
14732;SDS011;7457;50.960;6.830;2022-12-10T04:26:25;33.35;;;20.23;;
14732;SDS011;7457;50.960;6.830;2022-12-10T04:29:09;38.15;;;21.50;;
14732;SDS011;7457;50.960;6.830;2022-12-10T04:31:35;33.30;;;18.45;;
14732;SDS011;7457;50.960;6.830;2022-12-10T04:34:01;30.45;;;18.88;;
14732;SDS011;7457;50.960;6.830;2022-12-10T04:36:26;32.67;;;19.52;;
14732;SDS011;7457;50.960;6.830;2022-12-10T04:38:52;32.97;;;19.08;;
14732;SDS011;7457;50.960;6.830;2022-12-10T04:41:17;30.77;;;18.83;;
14732;SDS011;7457;50.960;6.830;2022-12-10T04:43:43;34.20;;;20.65;;
14732;SDS011;7457;50.960;6.830;2022-12-10T04:46:09;30.90;;;19.50;;
14732;SDS011;7457;50.960;6.830;2022-12-10T04:48:36;32.03;;;18.65;;
14732;SDS011;7457;50.960;6.830;2022-12-10T04:51:01;30.17;;;19.42;;
14732;SDS011;7457;50.960;6.830;2022-12-10T04:53:27;34.35;;;19.95;;
14732;SDS011;7457;50.960;6.830;2022-12-10T04:55:53;29.08;;;18.52;;
14732;SDS011;7457;50.960;6.830;2022-12-10T04:58:18;33.08;;;17.98;;
14732;SDS011;7457;50.960;6.830;2022-12-10T05:00:44;29.92;;;18.42;;
14732;SDS011;7457;50.960;6.830;2022-12-10T05:03:09;31.20;;;17.90;;
14732;SDS011;7457;50.960;6.830;2022-12-10T05:05:35;28.75;;;18.42;;
14732;SDS011;7457;50.960;6.830;2022-12-10T05:08:01;31.80;;;19.42;;
14732;SDS011;7457;50.960;6.830;2022-12-10T05:10:26;32.20;;;19.13;;
14732;SDS011;7457;50.960;6.830;2022-12-10T05:12:52;34.92;;;18.67;;
14732;SDS011;7457;50.960;6.830;2022-12-10T05:15:18;27.48;;;19.00;;
14732;SDS011;7457;50.960;6.830;2022-12-10T05:17:43;29.30;;;18.70;;
14732;SDS011;7457;50.960;6.830;2022-12-10T05:20:09;29.90;;;19.55;;
14732;SDS011;7457;50.960;6.830;2022-12-10T05:22:35;32.80;;;19.48;;
14732;SDS011;7457;50.960;6.830;2022-12-10T05:25:19;33.70;;;19.10;;
14732;SDS011;7457;50.960;6.830;2022-12-10T05:27:45;30.85;;;18.23;;
14732;SDS011;7457;50.960;6.830;2022-12-10T05:30:11;31.02;;;19.25;;
14732;SDS011;7457;50.960;6.830;2022-12-10T05:32:37;33.60;;;18.60;;
14732;SDS011;7457;50.960;6.830;2022-12-10T05:35:03;32.67;;;20.83;;
14732;SDS011;7457;50.960;6.830;2022-12-10T05:37:29;30.48;;;19.23;;
14732;SDS011;7457;50.960;6.830;2022-12-10T05:39:55;33.85;;;19.45;;
14732;SDS011;7457;50.960;6.830;2022-12-10T05:42:20;32.25;;;19.67;;
14732;SDS011;7457;50.960;6.830;2022-12-10T05:44:46;30.15;;;19.10;;
14732;SDS011;7457;50.960;6.830;2022-12-10T05:47:11;30.85;;;18.65;;
14732;SDS011;7457;50.960;6.830;2022-12-10T05:49:37;29.40;;;18.92;;
14732;SDS011;7457;50.960;6.830;2022-12-10T05:52:02;32.08;;;18.67;;
14732;SDS011;7457;50.960;6.830;2022-12-10T05:54:28;30.80;;;18.77;;
14732;SDS011;7457;50.960;6.830;2022-12-10T05:56:54;33.00;;;18.48;;
14732;SDS011;7457;50.960;6.830;2022-12-10T05:59:19;29.95;;;17.85;;
14732;SDS011;7457;50.960;6.830;2022-12-10T06:01:45;31.33;;;17.88;;
14732;SDS011;7457;50.960;6.830;2022-12-10T06:04:11;30.67;;;18.80;;
14732;SDS011;7457;50.960;6.830;2022-12-10T06:06:37;36.40;;;19.55;;
14732;SDS011;7457;50.960;6.830;2022-12-10T06:09:04;29.67;;;17.83;;
14732;SDS011;7457;50.960;6.830;2022-12-10T06:11:31;35.45;;;18.92;;
14732;SDS011;7457;50.960;6.830;2022-12-10T06:13:57;33.92;;;20.33;;
14732;SDS011;7457;50.960;6.830;2022-12-10T06:16:24;33.10;;;18.65;;
14732;SDS011;7457;50.960;6.830;2022-12-10T06:18:51;30.48;;;19.80;;
14732;SDS011;7457;50.960;6.830;2022-12-10T06:21:18;34.45;;;19.85;;
14732;SDS011;7457;50.960;6.830;2022-12-10T06:23:44;31.92;;;19.23;;
14732;SDS011;7457;50.960;6.830;2022-12-10T06:26:14;29.30;;;19.10;;
14732;SDS011;7457;50.960;6.830;2022-12-10T06:28:43;31.17;;;18.27;;
14732;SDS011;7457;50.960;6.830;2022-12-10T06:31:10;32.13;;;18.75;;
14732;SDS011;7457;50.960;6.830;2022-12-10T06:33:35;33.88;;;18.95;;
14732;SDS011;7457;50.960;6.830;2022-12-10T06:36:04;30.75;;;18.95;;
14732;SDS011;7457;50.960;6.830;2022-12-10T06:38:31;32.33;;;18.77;;
14732;SDS011;7457;50.960;6.830;2022-12-10T06:40:57;32.42;;;19.27;;
14732;SDS011;7457;50.960;6.830;2022-12-10T06:43:23;33.17;;;18.98;;
14732;SDS011;7457;50.960;6.830;2022-12-10T06:45:48;30.42;;;18.85;;
14732;SDS011;7457;50.960;6.830;2022-12-10T06:48:14;32.30;;;19.10;;
14732;SDS011;7457;50.960;6.830;2022-12-10T06:50:40;34.13;;;19.30;;
14732;SDS011;7457;50.960;6.830;2022-12-10T06:53:06;32.60;;;19.20;;
14732;SDS011;7457;50.960;6.830;2022-12-10T06:55:31;35.08;;;19.63;;
14732;SDS011;7457;50.960;6.830;2022-12-10T06:57:57;31.52;;;19.17;;
14732;SDS011;7457;50.960;6.830;2022-12-10T07:00:23;31.63;;;18.90;;
14732;SDS011;7457;50.960;6.830;2022-12-10T07:02:48;29.73;;;18.55;;
14732;SDS011;7457;50.960;6.830;2022-12-10T07:05:14;31.77;;;20.92;;
14732;SDS011;7457;50.960;6.830;2022-12-10T07:07:40;33.17;;;20.98;;
14732;SDS011;7457;50.960;6.830;2022-12-10T07:10:06;33.60;;;20.08;;
14732;SDS011;7457;50.960;6.830;2022-12-10T07:12:32;35.70;;;22.13;;
14732;SDS011;7457;50.960;6.830;2022-12-10T07:14:58;40.58;;;21.90;;
14732;SDS011;7457;50.960;6.830;2022-12-10T07:17:24;37.42;;;22.05;;
14732;SDS011;7457;50.960;6.830;2022-12-10T07:19:49;40.78;;;21.30;;
14732;SDS011;7457;50.960;6.830;2022-12-10T07:22:15;36.83;;;21.58;;
14732;SDS011;7457;50.960;6.830;2022-12-10T07:24:41;45.03;;;24.42;;
14732;SDS011;7457;50.960;6.830;2022-12-10T07:27:07;40.75;;;23.42;;
14732;SDS011;7457;50.960;6.830;2022-12-10T07:29:33;43.17;;;25.45;;
14732;SDS011;7457;50.960;6.830;2022-12-10T07:31:59;48.08;;;26.10;;
14732;SDS011;7457;50.960;6.830;2022-12-10T07:34:25;48.33;;;26.17;;
14732;SDS011;7457;50.960;6.830;2022-12-10T07:36:51;54.53;;;28.85;;
14732;SDS011;7457;50.960;6.830;2022-12-10T07:39:16;49.75;;;27.52;;
14732;SDS011;7457;50.960;6.830;2022-12-10T07:41:51;52.80;;;26.83;;
14732;SDS011;7457;50.960;6.830;2022-12-10T07:44:21;64.13;;;31.48;;
14732;SDS011;7457;50.960;6.830;2022-12-10T07:46:48;59.80;;;29.95;;
14732;SDS011;7457;50.960;6.830;2022-12-10T07:49:14;65.50;;;32.00;;
14732;SDS011;7457;50.960;6.830;2022-12-10T07:51:43;61.00;;;32.88;;
14732;SDS011;7457;50.960;6.830;2022-12-10T07:54:18;65.18;;;31.45;;
14732;SDS011;7457;50.960;6.830;2022-12-10T07:56:44;56.00;;;28.88;;
14732;SDS011;7457;50.960;6.830;2022-12-10T07:59:10;65.05;;;31.08;;
14732;SDS011;7457;50.960;6.830;2022-12-10T08:01:36;63.17;;;30.98;;
14732;SDS011;7457;50.960;6.830;2022-12-10T08:04:02;63.80;;;31.15;;
14732;SDS011;7457;50.960;6.830;2022-12-10T08:06:28;70.60;;;32.53;;
14732;SDS011;7457;50.960;6.830;2022-12-10T08:08:55;68.53;;;32.08;;
14732;SDS011;7457;50.960;6.830;2022-12-10T08:11:22;64.05;;;31.27;;
14732;SDS011;7457;50.960;6.830;2022-12-10T08:13:48;69.38;;;32.20;;
14732;SDS011;7457;50.960;6.830;2022-12-10T08:16:16;69.80;;;32.55;;
14732;SDS011;7457;50.960;6.830;2022-12-10T08:18:44;72.88;;;32.05;;
14732;SDS011;7457;50.960;6.830;2022-12-10T08:21:13;72.18;;;32.05;;
14732;SDS011;7457;50.960;6.830;2022-12-10T08:23:41;70.00;;;31.13;;
14732;SDS011;7457;50.960;6.830;2022-12-10T08:26:07;65.55;;;31.50;;
14732;SDS011;7457;50.960;6.830;2022-12-10T08:28:35;65.65;;;31.25;;
14732;SDS011;7457;50.960;6.830;2022-12-10T08:31:01;68.53;;;32.63;;
14732;SDS011;7457;50.960;6.830;2022-12-10T08:33:27;71.70;;;33.47;;
14732;SDS011;7457;50.960;6.830;2022-12-10T08:35:56;73.10;;;32.53;;
14732;SDS011;7457;50.960;6.830;2022-12-10T08:38:24;69.00;;;33.38;;
14732;SDS011;7457;50.960;6.830;2022-12-10T08:40:49;65.85;;;33.10;;
14732;SDS011;7457;50.960;6.830;2022-12-10T08:43:15;75.28;;;33.35;;
14732;SDS011;7457;50.960;6.830;2022-12-10T08:45:40;78.25;;;33.03;;
14732;SDS011;7457;50.960;6.830;2022-12-10T08:48:06;67.05;;;32.38;;
14732;SDS011;7457;50.960;6.830;2022-12-10T08:50:31;65.82;;;31.85;;
14732;SDS011;7457;50.960;6.830;2022-12-10T08:52:57;69.97;;;32.75;;
14732;SDS011;7457;50.960;6.830;2022-12-10T08:55:24;58.58;;;30.35;;
14732;SDS011;7457;50.960;6.830;2022-12-10T08:57:50;68.32;;;32.20;;
14732;SDS011;7457;50.960;6.830;2022-12-10T09:00:15;61.47;;;29.13;;
14732;SDS011;7457;50.960;6.830;2022-12-10T09:02:41;62.90;;;30.98;;
14732;SDS011;7457;50.960;6.830;2022-12-10T09:05:07;66.40;;;31.48;;
14732;SDS011;7457;50.960;6.830;2022-12-10T09:07:33;59.80;;;30.00;;
14732;SDS011;7457;50.960;6.830;2022-12-10T09:09:58;56.85;;;31.00;;
14732;SDS011;7457;50.960;6.830;2022-12-10T09:12:24;60.90;;;29.40;;
14732;SDS011;7457;50.960;6.830;2022-12-10T09:14:49;61.50;;;30.42;;
14732;SDS011;7457;50.960;6.830;2022-12-10T09:17:15;58.75;;;29.13;;
14732;SDS011;7457;50.960;6.830;2022-12-10T09:19:41;64.10;;;30.02;;
14732;SDS011;7457;50.960;6.830;2022-12-10T09:22:06;56.08;;;29.88;;
14732;SDS011;7457;50.960;6.830;2022-12-10T09:24:33;65.53;;;31.42;;
14732;SDS011;7457;50.960;6.830;2022-12-10T09:27:00;65.72;;;30.10;;
14732;SDS011;7457;50.960;6.830;2022-12-10T09:29:26;57.05;;;29.92;;
14732;SDS011;7457;50.960;6.830;2022-12-10T09:31:53;56.40;;;30.10;;
14732;SDS011;7457;50.960;6.830;2022-12-10T09:34:19;63.55;;;31.00;;
14732;SDS011;7457;50.960;6.830;2022-12-10T09:36:46;59.13;;;29.42;;
14732;SDS011;7457;50.960;6.830;2022-12-10T09:39:12;67.28;;;31.05;;
14732;SDS011;7457;50.960;6.830;2022-12-10T09:47:02;60.35;;;31.40;;
14732;SDS011;7457;50.960;6.830;2022-12-10T09:52:18;58.83;;;30.45;;
14732;SDS011;7457;50.960;6.830;2022-12-10T09:54:50;58.83;;;29.80;;
14732;SDS011;7457;50.960;6.830;2022-12-10T09:57:27;49.35;;;27.02;;
14732;SDS011;7457;50.960;6.830;2022-12-10T10:02:57;55.45;;;28.48;;
14732;SDS011;7457;50.960;6.830;2022-12-10T10:05:35;57.53;;;29.13;;
14732;SDS011;7457;50.960;6.830;2022-12-10T10:08:04;73.13;;;30.42;;
14732;SDS011;7457;50.960;6.830;2022-12-10T10:10:34;60.00;;;31.15;;
14732;SDS011;7457;50.960;6.830;2022-12-10T10:15:33;66.93;;;31.17;;
14732;SDS011;7457;50.960;6.830;2022-12-10T10:18:08;57.90;;;30.17;;
14732;SDS011;7457;50.960;6.830;2022-12-10T10:20:42;57.35;;;28.45;;
14732;SDS011;7457;50.960;6.830;2022-12-10T10:23:08;60.55;;;30.90;;
14732;SDS011;7457;50.960;6.830;2022-12-10T10:25:39;59.30;;;30.33;;
14732;SDS011;7457;50.960;6.830;2022-12-10T10:28:04;60.88;;;30.00;;
14732;SDS011;7457;50.960;6.830;2022-12-10T10:30:30;57.00;;;29.08;;
14732;SDS011;7457;50.960;6.830;2022-12-10T10:32:56;56.10;;;28.95;;
14732;SDS011;7457;50.960;6.830;2022-12-10T10:35:32;55.72;;;30.45;;
14732;SDS011;7457;50.960;6.830;2022-12-10T10:38:07;59.38;;;29.92;;
14732;SDS011;7457;50.960;6.830;2022-12-10T10:40:40;51.20;;;28.33;;
14732;SDS011;7457;50.960;6.830;2022-12-10T10:43:42;56.88;;;28.50;;
14732;SDS011;7457;50.960;6.830;2022-12-10T10:46:11;60.60;;;32.33;;
14732;SDS011;7457;50.960;6.830;2022-12-10T10:48:42;64.18;;;31.15;;
14732;SDS011;7457;50.960;6.830;2022-12-10T10:51:15;68.78;;;33.55;;
14732;SDS011;7457;50.960;6.830;2022-12-10T10:53:49;55.35;;;29.63;;
14732;SDS011;7457;50.960;6.830;2022-12-10T10:56:23;52.80;;;28.13;;
14732;SDS011;7457;50.960;6.830;2022-12-10T10:58:54;51.55;;;27.20;;
14732;SDS011;7457;50.960;6.830;2022-12-10T11:01:49;53.30;;;28.05;;
14732;SDS011;7457;50.960;6.830;2022-12-10T11:04:17;58.47;;;28.40;;
14732;SDS011;7457;50.960;6.830;2022-12-10T11:06:50;50.45;;;27.60;;
14732;SDS011;7457;50.960;6.830;2022-12-10T11:09:22;45.97;;;26.83;;
14732;SDS011;7457;50.960;6.830;2022-12-10T11:11:52;47.47;;;26.42;;
14732;SDS011;7457;50.960;6.830;2022-12-10T11:14:45;48.95;;;26.08;;
14732;SDS011;7457;50.960;6.830;2022-12-10T11:19:43;51.92;;;27.45;;
14732;SDS011;7457;50.960;6.830;2022-12-10T11:24:54;49.70;;;24.75;;
14732;SDS011;7457;50.960;6.830;2022-12-10T11:30:03;49.08;;;26.48;;
14732;SDS011;7457;50.960;6.830;2022-12-10T11:32:50;44.28;;;25.35;;
14732;SDS011;7457;50.960;6.830;2022-12-10T11:40:49;40.05;;;23.95;;
14732;SDS011;7457;50.960;6.830;2022-12-10T11:49:00;43.53;;;23.83;;
14732;SDS011;7457;50.960;6.830;2022-12-10T11:57:27;44.97;;;23.27;;
14732;SDS011;7457;50.960;6.830;2022-12-10T12:05:36;39.58;;;22.00;;
14732;SDS011;7457;50.960;6.830;2022-12-10T12:14:40;43.42;;;23.02;;
14732;SDS011;7457;50.960;6.830;2022-12-10T12:17:16;35.03;;;20.50;;
14732;SDS011;7457;50.960;6.830;2022-12-10T12:19:49;44.80;;;24.10;;
14732;SDS011;7457;50.960;6.830;2022-12-10T12:22:28;38.25;;;20.92;;
14732;SDS011;7457;50.960;6.830;2022-12-10T12:25:02;39.88;;;22.85;;
14732;SDS011;7457;50.960;6.830;2022-12-10T12:27:53;39.60;;;21.90;;
14732;SDS011;7457;50.960;6.830;2022-12-10T12:30:28;39.20;;;20.75;;
14732;SDS011;7457;50.960;6.830;2022-12-10T12:35:44;33.72;;;21.33;;
14732;SDS011;7457;50.960;6.830;2022-12-10T12:38:27;37.95;;;20.48;;
14732;SDS011;7457;50.960;6.830;2022-12-10T12:41:03;45.28;;;23.42;;
14732;SDS011;7457;50.960;6.830;2022-12-10T12:46:01;40.60;;;21.83;;
14732;SDS011;7457;50.960;6.830;2022-12-10T12:48:33;41.65;;;22.83;;
14732;SDS011;7457;50.960;6.830;2022-12-10T12:54:03;34.67;;;20.70;;
14732;SDS011;7457;50.960;6.830;2022-12-10T13:04:46;38.80;;;23.58;;
14732;SDS011;7457;50.960;6.830;2022-12-10T13:17:31;34.05;;;19.52;;
14732;SDS011;7457;50.960;6.830;2022-12-10T13:23:04;35.40;;;19.35;;
14732;SDS011;7457;50.960;6.830;2022-12-10T13:33:51;35.10;;;20.73;;
14732;SDS011;7457;50.960;6.830;2022-12-10T13:41:31;37.83;;;20.13;;
14732;SDS011;7457;50.960;6.830;2022-12-10T13:47:24;34.35;;;20.00;;
14732;SDS011;7457;50.960;6.830;2022-12-10T13:49:58;40.33;;;21.63;;
14732;SDS011;7457;50.960;6.830;2022-12-10T13:52:30;30.88;;;18.17;;
14732;SDS011;7457;50.960;6.830;2022-12-10T13:55:23;32.90;;;20.63;;
14732;SDS011;7457;50.960;6.830;2022-12-10T13:58:14;32.95;;;19.13;;
14732;SDS011;7457;50.960;6.830;2022-12-10T14:01:03;34.28;;;18.83;;
14732;SDS011;7457;50.960;6.830;2022-12-10T14:08:39;32.75;;;18.77;;
14732;SDS011;7457;50.960;6.830;2022-12-10T14:11:11;34.60;;;19.17;;
14732;SDS011;7457;50.960;6.830;2022-12-10T14:13:46;35.03;;;18.52;;
14732;SDS011;7457;50.960;6.830;2022-12-10T14:16:17;34.33;;;19.38;;
14732;SDS011;7457;50.960;6.830;2022-12-10T14:19:06;33.78;;;19.65;;
14732;SDS011;7457;50.960;6.830;2022-12-10T14:21:37;36.90;;;19.63;;
14732;SDS011;7457;50.960;6.830;2022-12-10T14:24:24;37.20;;;21.08;;
14732;SDS011;7457;50.960;6.830;2022-12-10T14:27:00;34.50;;;21.27;;
14732;SDS011;7457;50.960;6.830;2022-12-10T14:29:36;34.60;;;20.88;;
14732;SDS011;7457;50.960;6.830;2022-12-10T14:32:03;39.05;;;20.90;;
14732;SDS011;7457;50.960;6.830;2022-12-10T14:34:30;39.05;;;20.95;;
14732;SDS011;7457;50.960;6.830;2022-12-10T14:36:56;35.13;;;21.52;;
14732;SDS011;7457;50.960;6.830;2022-12-10T14:39:27;31.77;;;21.05;;
14732;SDS011;7457;50.960;6.830;2022-12-10T14:41:56;36.58;;;20.40;;
14732;SDS011;7457;50.960;6.830;2022-12-10T14:44:25;33.60;;;20.45;;
14732;SDS011;7457;50.960;6.830;2022-12-10T14:49:31;38.60;;;20.23;;
14732;SDS011;7457;50.960;6.830;2022-12-10T14:51:57;36.63;;;21.17;;
14732;SDS011;7457;50.960;6.830;2022-12-10T14:54:55;40.80;;;21.98;;
14732;SDS011;7457;50.960;6.830;2022-12-10T14:59:56;39.08;;;22.65;;
14732;SDS011;7457;50.960;6.830;2022-12-10T15:02:47;43.63;;;23.58;;
14732;SDS011;7457;50.960;6.830;2022-12-10T15:05:34;40.40;;;21.08;;
14732;SDS011;7457;50.960;6.830;2022-12-10T15:08:07;39.80;;;21.95;;
14732;SDS011;7457;50.960;6.830;2022-12-10T15:10:43;39.30;;;22.15;;
14732;SDS011;7457;50.960;6.830;2022-12-10T15:13:54;39.78;;;21.35;;
14732;SDS011;7457;50.960;6.830;2022-12-10T15:16:05;37.83;;;21.92;;
14732;SDS011;7457;50.960;6.830;2022-12-10T15:18:32;40.45;;;21.60;;
14732;SDS011;7457;50.960;6.830;2022-12-10T15:21:08;36.75;;;22.13;;
14732;SDS011;7457;50.960;6.830;2022-12-10T15:23:39;40.63;;;21.45;;
14732;SDS011;7457;50.960;6.830;2022-12-10T15:26:27;43.95;;;23.08;;
14732;SDS011;7457;50.960;6.830;2022-12-10T15:32:10;46.88;;;23.13;;
14732;SDS011;7457;50.960;6.830;2022-12-10T15:34:43;41.03;;;22.98;;
14732;SDS011;7457;50.960;6.830;2022-12-10T15:37:44;37.67;;;21.80;;
14732;SDS011;7457;50.960;6.830;2022-12-10T15:40:25;42.92;;;23.10;;
14732;SDS011;7457;50.960;6.830;2022-12-10T15:43:24;39.63;;;21.92;;
14732;SDS011;7457;50.960;6.830;2022-12-10T15:45:57;42.90;;;23.27;;
14732;SDS011;7457;50.960;6.830;2022-12-10T15:48:24;42.47;;;23.63;;
14732;SDS011;7457;50.960;6.830;2022-12-10T15:50:54;36.70;;;21.27;;
14732;SDS011;7457;50.960;6.830;2022-12-10T15:53:21;41.25;;;22.33;;
14732;SDS011;7457;50.960;6.830;2022-12-10T15:55:52;45.22;;;21.13;;
14732;SDS011;7457;50.960;6.830;2022-12-10T15:58:21;37.55;;;20.95;;
14732;SDS011;7457;50.960;6.830;2022-12-10T16:00:46;36.53;;;19.80;;
14732;SDS011;7457;50.960;6.830;2022-12-10T16:03:14;33.83;;;20.25;;
14732;SDS011;7457;50.960;6.830;2022-12-10T16:05:43;35.75;;;21.00;;
14732;SDS011;7457;50.960;6.830;2022-12-10T16:08:20;40.10;;;20.50;;
14732;SDS011;7457;50.960;6.830;2022-12-10T16:10:52;32.92;;;20.30;;
14732;SDS011;7457;50.960;6.830;2022-12-10T16:16:05;40.17;;;21.80;;
14732;SDS011;7457;50.960;6.830;2022-12-10T16:18:37;38.22;;;21.58;;
14732;SDS011;7457;50.960;6.830;2022-12-10T16:21:07;43.75;;;24.60;;
14732;SDS011;7457;50.960;6.830;2022-12-10T16:23:33;44.90;;;23.52;;
14732;SDS011;7457;50.960;6.830;2022-12-10T16:26:08;40.53;;;21.95;;
14732;SDS011;7457;50.960;6.830;2022-12-10T16:28:39;44.33;;;23.83;;
14732;SDS011;7457;50.960;6.830;2022-12-10T16:31:04;35.42;;;21.05;;
14732;SDS011;7457;50.960;6.830;2022-12-10T16:33:34;39.70;;;21.75;;
14732;SDS011;7457;50.960;6.830;2022-12-10T16:36:00;36.55;;;21.50;;
14732;SDS011;7457;50.960;6.830;2022-12-10T16:38:27;36.53;;;20.08;;
14732;SDS011;7457;50.960;6.830;2022-12-10T16:40:52;38.00;;;21.45;;
14732;SDS011;7457;50.960;6.830;2022-12-10T16:43:22;42.85;;;21.70;;
14732;SDS011;7457;50.960;6.830;2022-12-10T16:45:50;39.53;;;21.38;;
14732;SDS011;7457;50.960;6.830;2022-12-10T16:48:16;39.25;;;21.30;;
14732;SDS011;7457;50.960;6.830;2022-12-10T16:50:42;36.72;;;20.95;;
14732;SDS011;7457;50.960;6.830;2022-12-10T16:53:16;39.00;;;20.63;;
14732;SDS011;7457;50.960;6.830;2022-12-10T16:55:48;38.85;;;20.42;;
14732;SDS011;7457;50.960;6.830;2022-12-10T16:58:14;43.47;;;21.33;;
14732;SDS011;7457;50.960;6.830;2022-12-10T17:00:40;35.95;;;20.67;;
14732;SDS011;7457;50.960;6.830;2022-12-10T17:03:14;36.22;;;20.00;;
14732;SDS011;7457;50.960;6.830;2022-12-10T17:05:47;37.25;;;21.23;;